sensor_id;sensor_type;location;lat;lon;timestamp;P1;durP1;ratioP1;P2;durP2;ratioP2
28245;SDS011;15510;52.512;13.300;2022-12-29T00:02:15;2.00;;;1.80;;
28245;SDS011;15510;52.512;13.300;2022-12-29T00:04:41;1.50;;;1.30;;
28245;SDS011;15510;52.512;13.300;2022-12-29T00:07:07;1.73;;;1.30;;
28245;SDS011;15510;52.512;13.300;2022-12-29T00:09:34;2.73;;;1.57;;
28245;SDS011;15510;52.512;13.300;2022-12-29T00:12:00;2.13;;;1.83;;
28245;SDS011;15510;52.512;13.300;2022-12-29T00:14:27;2.50;;;1.40;;
28245;SDS011;15510;52.512;13.300;2022-12-29T00:17:11;2.33;;;1.27;;
28245;SDS011;15510;52.512;13.300;2022-12-29T00:19:38;1.70;;;1.10;;
28245;SDS011;15510;52.512;13.300;2022-12-29T00:22:22;3.47;;;1.60;;
28245;SDS011;15510;52.512;13.300;2022-12-29T00:25:08;2.77;;;1.50;;
28245;SDS011;15510;52.512;13.300;2022-12-29T00:27:53;2.43;;;1.47;;
28245;SDS011;15510;52.512;13.300;2022-12-29T00:30:39;2.00;;;1.33;;
28245;SDS011;15510;52.512;13.300;2022-12-29T00:33:33;2.73;;;1.57;;
28245;SDS011;15510;52.512;13.300;2022-12-29T00:36:25;2.07;;;1.07;;
28245;SDS011;15510;52.512;13.300;2022-12-29T00:39:03;2.57;;;1.30;;
28245;SDS011;15510;52.512;13.300;2022-12-29T00:42:06;2.60;;;1.20;;
28245;SDS011;15510;52.512;13.300;2022-12-29T00:45:02;1.17;;;0.97;;
28245;SDS011;15510;52.512;13.300;2022-12-29T00:47:29;2.17;;;1.30;;
28245;SDS011;15510;52.512;13.300;2022-12-29T00:49:54;2.83;;;1.20;;
28245;SDS011;15510;52.512;13.300;2022-12-29T00:52:22;1.37;;;1.23;;
28245;SDS011;15510;52.512;13.300;2022-12-29T00:54:47;1.57;;;1.20;;
28245;SDS011;15510;52.512;13.300;2022-12-29T00:57:13;1.87;;;1.20;;
28245;SDS011;15510;52.512;13.300;2022-12-29T00:59:40;1.83;;;1.40;;
28245;SDS011;15510;52.512;13.300;2022-12-29T01:02:07;1.73;;;1.20;;
28245;SDS011;15510;52.512;13.300;2022-12-29T01:04:33;1.37;;;1.27;;
28245;SDS011;15510;52.512;13.300;2022-12-29T01:06:59;0.90;;;0.90;;
28245;SDS011;15510;52.512;13.300;2022-12-29T01:09:25;3.77;;;1.10;;
28245;SDS011;15510;52.512;13.300;2022-12-29T01:12:10;2.90;;;1.10;;
28245;SDS011;15510;52.512;13.300;2022-12-29T01:14:36;2.07;;;1.33;;
28245;SDS011;15510;52.512;13.300;2022-12-29T01:17:02;2.17;;;1.03;;
28245;SDS011;15510;52.512;13.300;2022-12-29T01:19:28;1.33;;;1.10;;
28245;SDS011;15510;52.512;13.300;2022-12-29T01:21:55;5.63;;;1.50;;
28245;SDS011;15510;52.512;13.300;2022-12-29T01:24:20;1.40;;;1.20;;
28245;SDS011;15510;52.512;13.300;2022-12-29T01:26:47;1.73;;;1.13;;
28245;SDS011;15510;52.512;13.300;2022-12-29T01:29:15;1.40;;;1.23;;
28245;SDS011;15510;52.512;13.300;2022-12-29T01:31:44;2.37;;;1.30;;
28245;SDS011;15510;52.512;13.300;2022-12-29T01:34:10;2.00;;;1.37;;
28245;SDS011;15510;52.512;13.300;2022-12-29T01:36:37;2.40;;;0.87;;
28245;SDS011;15510;52.512;13.300;2022-12-29T01:39:02;1.10;;;1.00;;
28245;SDS011;15510;52.512;13.300;2022-12-29T01:41:28;1.50;;;1.10;;
28245;SDS011;15510;52.512;13.300;2022-12-29T01:43:55;1.10;;;1.00;;
28245;SDS011;15510;52.512;13.300;2022-12-29T01:46:39;1.63;;;1.30;;
28245;SDS011;15510;52.512;13.300;2022-12-29T01:51:44;3.67;;;1.70;;
28245;SDS011;15510;52.512;13.300;2022-12-29T01:54:26;1.60;;;1.17;;
28245;SDS011;15510;52.512;13.300;2022-12-29T01:57:03;1.23;;;1.10;;
28245;SDS011;15510;52.512;13.300;2022-12-29T01:59:38;2.70;;;1.43;;
28245;SDS011;15510;52.512;13.300;2022-12-29T02:02:11;1.37;;;1.23;;
28245;SDS011;15510;52.512;13.300;2022-12-29T02:04:39;1.90;;;1.30;;
28245;SDS011;15510;52.512;13.300;2022-12-29T02:07:10;2.13;;;1.50;;
28245;SDS011;15510;52.512;13.300;2022-12-29T02:09:46;6.30;;;1.30;;
28245;SDS011;15510;52.512;13.300;2022-12-29T02:12:14;1.60;;;1.23;;
28245;SDS011;15510;52.512;13.300;2022-12-29T02:14:41;2.57;;;1.60;;
28245;SDS011;15510;52.512;13.300;2022-12-29T02:40:06;1.80;;;1.10;;
28245;SDS011;15510;52.512;13.300;2022-12-29T02:43:06;2.13;;;1.33;;
28245;SDS011;15510;52.512;13.300;2022-12-29T02:45:54;1.20;;;1.03;;
28245;SDS011;15510;52.512;13.300;2022-12-29T02:48:41;6.43;;;1.30;;
28245;SDS011;15510;52.512;13.300;2022-12-29T02:51:21;1.27;;;1.10;;
28245;SDS011;15510;52.512;13.300;2022-12-29T02:53:52;2.67;;;1.20;;
28245;SDS011;15510;52.512;13.300;2022-12-29T02:56:37;1.47;;;1.20;;
28245;SDS011;15510;52.512;13.300;2022-12-29T02:59:03;4.47;;;1.20;;
28245;SDS011;15510;52.512;13.300;2022-12-29T03:04:36;1.93;;;1.10;;
28245;SDS011;15510;52.512;13.300;2022-12-29T03:07:25;1.17;;;1.07;;
28245;SDS011;15510;52.512;13.300;2022-12-29T03:10:10;2.03;;;1.20;;
28245;SDS011;15510;52.512;13.300;2022-12-29T03:12:54;2.40;;;1.00;;
28245;SDS011;15510;52.512;13.300;2022-12-29T03:16:02;1.37;;;1.17;;
28245;SDS011;15510;52.512;13.300;2022-12-29T03:21:20;1.70;;;1.20;;
28245;SDS011;15510;52.512;13.300;2022-12-29T03:24:29;2.50;;;1.10;;
28245;SDS011;15510;52.512;13.300;2022-12-29T03:27:03;2.43;;;0.93;;
28245;SDS011;15510;52.512;13.300;2022-12-29T03:29:38;1.13;;;1.03;;
28245;SDS011;15510;52.512;13.300;2022-12-29T03:32:08;1.77;;;1.13;;
28245;SDS011;15510;52.512;13.300;2022-12-29T03:34:37;1.50;;;1.07;;
28245;SDS011;15510;52.512;13.300;2022-12-29T03:37:11;0.83;;;0.83;;
28245;SDS011;15510;52.512;13.300;2022-12-29T03:39:39;1.47;;;0.93;;
28245;SDS011;15510;52.512;13.300;2022-12-29T03:42:11;2.47;;;1.10;;
28245;SDS011;15510;52.512;13.300;2022-12-29T03:44:41;1.10;;;1.00;;
28245;SDS011;15510;52.512;13.300;2022-12-29T03:47:11;2.47;;;1.00;;
28245;SDS011;15510;52.512;13.300;2022-12-29T03:49:37;1.47;;;0.80;;
28245;SDS011;15510;52.512;13.300;2022-12-29T03:52:03;1.53;;;1.00;;
28245;SDS011;15510;52.512;13.300;2022-12-29T03:54:33;1.30;;;1.03;;
28245;SDS011;15510;52.512;13.300;2022-12-29T03:56:59;2.00;;;1.10;;
28245;SDS011;15510;52.512;13.300;2022-12-29T03:59:43;2.50;;;0.97;;
28245;SDS011;15510;52.512;13.300;2022-12-29T04:02:09;2.37;;;1.00;;
28245;SDS011;15510;52.512;13.300;2022-12-29T04:04:36;1.80;;;1.07;;
28245;SDS011;15510;52.512;13.300;2022-12-29T04:07:01;1.10;;;0.97;;
28245;SDS011;15510;52.512;13.300;2022-12-29T04:09:27;2.27;;;0.90;;
28245;SDS011;15510;52.512;13.300;2022-12-29T04:11:55;1.57;;;1.00;;
28245;SDS011;15510;52.512;13.300;2022-12-29T04:14:21;4.20;;;1.17;;
28245;SDS011;15510;52.512;13.300;2022-12-29T04:16:46;1.03;;;0.93;;
28245;SDS011;15510;52.512;13.300;2022-12-29T04:19:12;3.00;;;1.20;;
28245;SDS011;15510;52.512;13.300;2022-12-29T04:21:38;1.20;;;1.10;;
28245;SDS011;15510;52.512;13.300;2022-12-29T04:24:04;1.00;;;0.97;;
28245;SDS011;15510;52.512;13.300;2022-12-29T04:26:38;1.67;;;1.40;;
28245;SDS011;15510;52.512;13.300;2022-12-29T04:29:23;1.97;;;1.10;;
28245;SDS011;15510;52.512;13.300;2022-12-29T04:32:12;1.63;;;1.00;;
28245;SDS011;15510;52.512;13.300;2022-12-29T04:34:43;1.10;;;1.00;;
28245;SDS011;15510;52.512;13.300;2022-12-29T04:37:09;3.00;;;0.90;;
28245;SDS011;15510;52.512;13.300;2022-12-29T04:39:35;3.70;;;1.10;;
28245;SDS011;15510;52.512;13.300;2022-12-29T04:42:04;7.33;;;1.50;;
28245;SDS011;15510;52.512;13.300;2022-12-29T04:44:31;2.20;;;0.93;;
28245;SDS011;15510;52.512;13.300;2022-12-29T04:47:10;1.20;;;1.10;;
28245;SDS011;15510;52.512;13.300;2022-12-29T04:50:02;1.43;;;0.80;;
28245;SDS011;15510;52.512;13.300;2022-12-29T04:52:41;1.97;;;1.20;;
28245;SDS011;15510;52.512;13.300;2022-12-29T04:55:09;1.93;;;1.03;;
28245;SDS011;15510;52.512;13.300;2022-12-29T04:57:35;2.83;;;0.97;;
28245;SDS011;15510;52.512;13.300;2022-12-29T05:00:01;2.00;;;1.03;;
28245;SDS011;15510;52.512;13.300;2022-12-29T05:02:28;1.33;;;1.03;;
28245;SDS011;15510;52.512;13.300;2022-12-29T05:04:55;3.07;;;1.10;;
28245;SDS011;15510;52.512;13.300;2022-12-29T05:07:21;4.00;;;0.93;;
28245;SDS011;15510;52.512;13.300;2022-12-29T05:09:47;1.83;;;1.03;;
28245;SDS011;15510;52.512;13.300;2022-12-29T05:12:14;1.37;;;0.87;;
28245;SDS011;15510;52.512;13.300;2022-12-29T05:14:50;1.93;;;1.10;;
28245;SDS011;15510;52.512;13.300;2022-12-29T05:17:16;3.87;;;1.37;;
28245;SDS011;15510;52.512;13.300;2022-12-29T05:19:41;1.50;;;0.90;;
28245;SDS011;15510;52.512;13.300;2022-12-29T05:22:07;2.10;;;1.30;;
28245;SDS011;15510;52.512;13.300;2022-12-29T05:24:33;3.27;;;1.70;;
28245;SDS011;15510;52.512;13.300;2022-12-29T05:27:01;1.60;;;1.20;;
28245;SDS011;15510;52.512;13.300;2022-12-29T05:29:45;2.83;;;1.10;;
28245;SDS011;15510;52.512;13.300;2022-12-29T05:32:11;2.27;;;1.17;;
28245;SDS011;15510;52.512;13.300;2022-12-29T05:34:37;0.90;;;0.90;;
28245;SDS011;15510;52.512;13.300;2022-12-29T05:37:03;1.40;;;1.10;;
28245;SDS011;15510;52.512;13.300;2022-12-29T05:39:29;2.80;;;1.27;;
28245;SDS011;15510;52.512;13.300;2022-12-29T05:41:59;2.13;;;1.20;;
28245;SDS011;15510;52.512;13.300;2022-12-29T05:44:43;1.20;;;0.90;;
28245;SDS011;15510;52.512;13.300;2022-12-29T05:47:17;3.53;;;1.07;;
28245;SDS011;15510;52.512;13.300;2022-12-29T05:50:03;1.90;;;0.90;;
28245;SDS011;15510;52.512;13.300;2022-12-29T05:52:49;2.03;;;1.47;;
28245;SDS011;15510;52.512;13.300;2022-12-29T05:55:16;2.33;;;1.03;;
28245;SDS011;15510;52.512;13.300;2022-12-29T05:57:44;2.03;;;1.00;;
28245;SDS011;15510;52.512;13.300;2022-12-29T06:00:13;0.80;;;0.73;;
28245;SDS011;15510;52.512;13.300;2022-12-29T06:02:44;1.10;;;0.97;;
28245;SDS011;15510;52.512;13.300;2022-12-29T06:05:10;2.53;;;1.27;;
28245;SDS011;15510;52.512;13.300;2022-12-29T06:07:37;1.73;;;0.77;;
28245;SDS011;15510;52.512;13.300;2022-12-29T06:10:04;2.50;;;1.67;;
28245;SDS011;15510;52.512;13.300;2022-12-29T06:12:36;1.97;;;1.30;;
28245;SDS011;15510;52.512;13.300;2022-12-29T06:15:03;6.47;;;4.47;;
28245;SDS011;15510;52.512;13.300;2022-12-29T06:17:29;2.83;;;2.57;;
28245;SDS011;15510;52.512;13.300;2022-12-29T06:19:55;1.63;;;1.00;;
28245;SDS011;15510;52.512;13.300;2022-12-29T06:22:21;2.40;;;0.97;;
28245;SDS011;15510;52.512;13.300;2022-12-29T06:24:46;3.00;;;1.30;;
28245;SDS011;15510;52.512;13.300;2022-12-29T06:27:12;2.30;;;1.10;;
28245;SDS011;15510;52.512;13.300;2022-12-29T06:29:39;1.10;;;0.97;;
28245;SDS011;15510;52.512;13.300;2022-12-29T06:32:07;2.50;;;2.30;;
28245;SDS011;15510;52.512;13.300;2022-12-29T06:34:32;1.20;;;1.10;;
28245;SDS011;15510;52.512;13.300;2022-12-29T06:36:58;1.63;;;0.97;;
28245;SDS011;15510;52.512;13.300;2022-12-29T06:39:24;1.43;;;1.03;;
28245;SDS011;15510;52.512;13.300;2022-12-29T06:42:19;1.93;;;1.20;;
28245;SDS011;15510;52.512;13.300;2022-12-29T06:45:03;2.57;;;1.50;;
28245;SDS011;15510;52.512;13.300;2022-12-29T06:47:29;4.83;;;2.13;;
28245;SDS011;15510;52.512;13.300;2022-12-29T06:49:55;1.17;;;0.90;;
28245;SDS011;15510;52.512;13.300;2022-12-29T06:52:20;1.10;;;1.00;;
28245;SDS011;15510;52.512;13.300;2022-12-29T06:54:48;1.43;;;0.83;;
28245;SDS011;15510;52.512;13.300;2022-12-29T06:57:14;1.00;;;0.90;;
28245;SDS011;15510;52.512;13.300;2022-12-29T06:59:40;0.90;;;0.80;;
28245;SDS011;15510;52.512;13.300;2022-12-29T07:02:06;1.43;;;0.90;;
28245;SDS011;15510;52.512;13.300;2022-12-29T07:04:32;1.37;;;1.10;;
28245;SDS011;15510;52.512;13.300;2022-12-29T07:06:57;2.90;;;0.90;;
28245;SDS011;15510;52.512;13.300;2022-12-29T07:09:23;0.80;;;0.80;;
28245;SDS011;15510;52.512;13.300;2022-12-29T07:11:49;1.30;;;1.10;;
28245;SDS011;15510;52.512;13.300;2022-12-29T07:14:15;1.13;;;0.73;;
28245;SDS011;15510;52.512;13.300;2022-12-29T07:16:41;2.97;;;1.10;;
28245;SDS011;15510;52.512;13.300;2022-12-29T07:19:06;1.83;;;0.90;;
28245;SDS011;15510;52.512;13.300;2022-12-29T07:21:32;1.67;;;0.90;;
28245;SDS011;15510;52.512;13.300;2022-12-29T07:23:58;0.80;;;0.80;;
28245;SDS011;15510;52.512;13.300;2022-12-29T07:26:24;1.90;;;0.90;;
28245;SDS011;15510;52.512;13.300;2022-12-29T07:28:50;0.90;;;0.80;;
28245;SDS011;15510;52.512;13.300;2022-12-29T07:31:19;1.57;;;0.77;;
28245;SDS011;15510;52.512;13.300;2022-12-29T07:33:46;2.73;;;0.80;;
28245;SDS011;15510;52.512;13.300;2022-12-29T07:36:13;0.77;;;0.73;;
28245;SDS011;15510;52.512;13.300;2022-12-29T07:38:39;3.87;;;1.10;;
28245;SDS011;15510;52.512;13.300;2022-12-29T07:41:06;1.20;;;0.80;;
28245;SDS011;15510;52.512;13.300;2022-12-29T07:43:32;1.57;;;0.83;;
28245;SDS011;15510;52.512;13.300;2022-12-29T07:46:17;2.77;;;0.90;;
28245;SDS011;15510;52.512;13.300;2022-12-29T07:48:44;2.80;;;0.87;;
28245;SDS011;15510;52.512;13.300;2022-12-29T07:51:09;1.10;;;0.93;;
28245;SDS011;15510;52.512;13.300;2022-12-29T07:53:36;1.47;;;0.90;;
28245;SDS011;15510;52.512;13.300;2022-12-29T07:56:02;0.73;;;0.73;;
28245;SDS011;15510;52.512;13.300;2022-12-29T07:58:28;1.17;;;0.80;;
28245;SDS011;15510;52.512;13.300;2022-12-29T08:00:54;1.30;;;1.00;;
28245;SDS011;15510;52.512;13.300;2022-12-29T08:03:20;0.60;;;0.60;;
28245;SDS011;15510;52.512;13.300;2022-12-29T08:05:46;0.80;;;0.80;;
28245;SDS011;15510;52.512;13.300;2022-12-29T08:08:12;2.93;;;0.70;;
28245;SDS011;15510;52.512;13.300;2022-12-29T08:10:38;1.50;;;0.83;;
28245;SDS011;15510;52.512;13.300;2022-12-29T08:13:04;0.87;;;0.87;;
28245;SDS011;15510;52.512;13.300;2022-12-29T08:15:30;1.40;;;1.00;;
28245;SDS011;15510;52.512;13.300;2022-12-29T08:17:55;2.90;;;1.20;;
28245;SDS011;15510;52.512;13.300;2022-12-29T08:20:21;1.40;;;0.93;;
28245;SDS011;15510;52.512;13.300;2022-12-29T08:22:46;1.13;;;0.80;;
28245;SDS011;15510;52.512;13.300;2022-12-29T08:25:12;1.40;;;1.00;;
28245;SDS011;15510;52.512;13.300;2022-12-29T08:27:38;0.70;;;0.50;;
28245;SDS011;15510;52.512;13.300;2022-12-29T08:30:04;2.37;;;1.00;;
28245;SDS011;15510;52.512;13.300;2022-12-29T08:32:30;1.80;;;0.97;;
28245;SDS011;15510;52.512;13.300;2022-12-29T08:34:56;1.37;;;1.17;;
28245;SDS011;15510;52.512;13.300;2022-12-29T08:37:22;0.83;;;0.60;;
28245;SDS011;15510;52.512;13.300;2022-12-29T08:39:48;1.33;;;0.80;;
28245;SDS011;15510;52.512;13.300;2022-12-29T08:42:13;1.67;;;1.00;;
28245;SDS011;15510;52.512;13.300;2022-12-29T08:44:39;2.60;;;1.00;;
28245;SDS011;15510;52.512;13.300;2022-12-29T08:47:05;1.03;;;0.90;;
28245;SDS011;15510;52.512;13.300;2022-12-29T08:49:31;1.77;;;0.97;;
28245;SDS011;15510;52.512;13.300;2022-12-29T08:51:58;2.03;;;0.93;;
28245;SDS011;15510;52.512;13.300;2022-12-29T08:54:24;3.80;;;0.80;;
28245;SDS011;15510;52.512;13.300;2022-12-29T08:56:50;2.67;;;0.70;;
28245;SDS011;15510;52.512;13.300;2022-12-29T08:59:17;2.43;;;1.10;;
28245;SDS011;15510;52.512;13.300;2022-12-29T09:01:45;1.27;;;0.90;;
28245;SDS011;15510;52.512;13.300;2022-12-29T09:04:11;2.47;;;1.00;;
28245;SDS011;15510;52.512;13.300;2022-12-29T09:06:37;1.30;;;0.77;;
28245;SDS011;15510;52.512;13.300;2022-12-29T09:09:02;1.50;;;0.83;;
28245;SDS011;15510;52.512;13.300;2022-12-29T09:11:28;1.00;;;1.00;;
28245;SDS011;15510;52.512;13.300;2022-12-29T09:13:54;4.17;;;1.20;;
28245;SDS011;15510;52.512;13.300;2022-12-29T09:16:21;4.10;;;0.90;;
28245;SDS011;15510;52.512;13.300;2022-12-29T09:18:48;1.57;;;0.93;;
28245;SDS011;15510;52.512;13.300;2022-12-29T09:21:13;4.90;;;1.60;;
28245;SDS011;15510;52.512;13.300;2022-12-29T09:23:39;3.30;;;0.90;;
28245;SDS011;15510;52.512;13.300;2022-12-29T09:26:05;1.00;;;0.80;;
28245;SDS011;15510;52.512;13.300;2022-12-29T09:28:32;2.27;;;1.03;;
28245;SDS011;15510;52.512;13.300;2022-12-29T09:30:58;1.47;;;1.00;;
28245;SDS011;15510;52.512;13.300;2022-12-29T09:33:25;0.97;;;0.70;;
28245;SDS011;15510;52.512;13.300;2022-12-29T09:35:57;2.00;;;0.80;;
28245;SDS011;15510;52.512;13.300;2022-12-29T09:38:24;2.47;;;0.70;;
28245;SDS011;15510;52.512;13.300;2022-12-29T09:40:52;1.10;;;0.80;;
28245;SDS011;15510;52.512;13.300;2022-12-29T09:46:15;2.60;;;0.83;;
28245;SDS011;15510;52.512;13.300;2022-12-29T09:48:56;3.57;;;1.20;;
28245;SDS011;15510;52.512;13.300;2022-12-29T09:51:37;1.23;;;0.80;;
28245;SDS011;15510;52.512;13.300;2022-12-29T09:56:59;3.00;;;1.53;;
28245;SDS011;15510;52.512;13.300;2022-12-29T09:59:36;3.23;;;0.87;;
28245;SDS011;15510;52.512;13.300;2022-12-29T10:24:54;1.97;;;0.80;;
28245;SDS011;15510;52.512;13.300;2022-12-29T10:27:22;1.53;;;1.40;;
28245;SDS011;15510;52.512;13.300;2022-12-29T10:29:53;7.90;;;1.37;;
28245;SDS011;15510;52.512;13.300;2022-12-29T10:35:51;2.40;;;1.17;;
28245;SDS011;15510;52.512;13.300;2022-12-29T10:40:42;1.65;;;0.73;;
28245;SDS011;15510;52.512;13.300;2022-12-29T10:43:29;2.80;;;0.80;;
28245;SDS011;15510;52.512;13.300;2022-12-29T10:46:06;2.65;;;0.65;;
28245;SDS011;15510;52.512;13.300;2022-12-29T10:48:38;1.08;;;0.70;;
28245;SDS011;15510;52.512;13.300;2022-12-29T10:51:04;0.98;;;0.55;;
28245;SDS011;15510;52.512;13.300;2022-12-29T10:53:45;1.65;;;0.60;;
28245;SDS011;15510;52.512;13.300;2022-12-29T10:58:49;1.10;;;0.90;;
28245;SDS011;15510;52.512;13.300;2022-12-29T11:01:16;2.42;;;0.88;;
28245;SDS011;15510;52.512;13.300;2022-12-29T11:06:29;1.98;;;1.33;;
28245;SDS011;15510;52.512;13.300;2022-12-29T11:09:12;1.65;;;0.80;;
28245;SDS011;15510;52.512;13.300;2022-12-29T11:11:48;0.90;;;0.80;;
28245;SDS011;15510;52.512;13.300;2022-12-29T11:14:21;1.00;;;0.80;;
28245;SDS011;15510;52.512;13.300;2022-12-29T11:16:59;2.95;;;0.80;;
28245;SDS011;15510;52.512;13.300;2022-12-29T11:19:30;3.50;;;0.63;;
28245;SDS011;15510;52.512;13.300;2022-12-29T11:22:40;1.60;;;0.60;;
28245;SDS011;15510;52.512;13.300;2022-12-29T11:24:52;2.30;;;0.55;;
28245;SDS011;15510;52.512;13.300;2022-12-29T11:27:20;1.60;;;1.00;;
28245;SDS011;15510;52.512;13.300;2022-12-29T11:29:48;2.77;;;1.27;;
28245;SDS011;15510;52.512;13.300;2022-12-29T11:34:45;1.58;;;0.75;;
28245;SDS011;15510;52.512;13.300;2022-12-29T11:37:13;2.60;;;1.10;;
28245;SDS011;15510;52.512;13.300;2022-12-29T11:39:51;2.00;;;1.65;;
28245;SDS011;15510;52.512;13.300;2022-12-29T11:42:37;1.50;;;1.20;;
28245;SDS011;15510;52.512;13.300;2022-12-29T11:45:06;1.63;;;1.15;;
28245;SDS011;15510;52.512;13.300;2022-12-29T11:47:42;2.33;;;2.13;;
28245;SDS011;15510;52.512;13.300;2022-12-29T11:50:21;1.90;;;1.75;;
28245;SDS011;15510;52.512;13.300;2022-12-29T11:52:50;2.17;;;1.33;;
28245;SDS011;15510;52.512;13.300;2022-12-29T11:55:24;0.83;;;0.70;;
28245;SDS011;15510;52.512;13.300;2022-12-29T11:57:51;2.28;;;1.98;;
28245;SDS011;15510;52.512;13.300;2022-12-29T12:00:23;3.10;;;0.80;;
28245;SDS011;15510;52.512;13.300;2022-12-29T12:08:21;1.17;;;0.77;;
28245;SDS011;15510;52.512;13.300;2022-12-29T12:11:06;1.93;;;0.73;;
28245;SDS011;15510;52.512;13.300;2022-12-29T12:14:00;1.40;;;0.67;;
28245;SDS011;15510;52.512;13.300;2022-12-29T12:16:41;3.93;;;2.13;;
28245;SDS011;15510;52.512;13.300;2022-12-29T12:19:20;2.93;;;2.30;;
28245;SDS011;15510;52.512;13.300;2022-12-29T12:22:01;1.87;;;1.20;;
28245;SDS011;15510;52.512;13.300;2022-12-29T12:24:37;2.37;;;1.07;;
28245;SDS011;15510;52.512;13.300;2022-12-29T12:30:02;3.17;;;0.90;;
28245;SDS011;15510;52.512;13.300;2022-12-29T12:32:41;1.77;;;0.97;;
28245;SDS011;15510;52.512;13.300;2022-12-29T12:46:18;2.27;;;0.80;;
28245;SDS011;15510;52.512;13.300;2022-12-29T12:48:52;0.73;;;0.50;;
28245;SDS011;15510;52.512;13.300;2022-12-29T12:51:40;1.87;;;0.50;;
28245;SDS011;15510;52.512;13.300;2022-12-29T12:54:27;1.97;;;0.40;;
28245;SDS011;15510;52.512;13.300;2022-12-29T12:57:09;2.00;;;0.40;;
28245;SDS011;15510;52.512;13.300;2022-12-29T12:59:56;1.40;;;0.63;;
28245;SDS011;15510;52.512;13.300;2022-12-29T13:10:49;4.27;;;1.70;;
28245;SDS011;15510;52.512;13.300;2022-12-29T13:16:23;2.30;;;0.80;;
28245;SDS011;15510;52.512;13.300;2022-12-29T13:24:02;3.07;;;1.67;;
28245;SDS011;15510;52.512;13.300;2022-12-29T13:27:00;1.80;;;1.20;;
28245;SDS011;15510;52.512;13.300;2022-12-29T13:29:45;2.53;;;1.83;;
28245;SDS011;15510;52.512;13.300;2022-12-29T13:40:53;5.10;;;2.97;;
28245;SDS011;15510;52.512;13.300;2022-12-29T13:43:21;7.10;;;4.27;;
28245;SDS011;15510;52.512;13.300;2022-12-29T13:45:50;3.33;;;1.73;;
28245;SDS011;15510;52.512;13.300;2022-12-29T13:48:40;3.00;;;1.97;;
28245;SDS011;15510;52.512;13.300;2022-12-29T13:51:14;1.53;;;1.00;;
28245;SDS011;15510;52.512;13.300;2022-12-29T13:56:20;1.97;;;1.47;;
28245;SDS011;15510;52.512;13.300;2022-12-29T13:58:57;3.43;;;1.60;;
28245;SDS011;15510;52.512;13.300;2022-12-29T14:01:43;6.23;;;1.33;;
28245;SDS011;15510;52.512;13.300;2022-12-29T14:04:23;6.40;;;3.87;;
28245;SDS011;15510;52.512;13.300;2022-12-29T14:07:00;0.80;;;0.80;;
28245;SDS011;15510;52.512;13.300;2022-12-29T14:12:32;3.67;;;0.90;;
28245;SDS011;15510;52.512;13.300;2022-12-29T14:17:41;3.10;;;1.17;;
28245;SDS011;15510;52.512;13.300;2022-12-29T14:20:21;2.37;;;1.23;;
28245;SDS011;15510;52.512;13.300;2022-12-29T14:23:01;3.17;;;2.80;;
28245;SDS011;15510;52.512;13.300;2022-12-29T14:28:31;4.30;;;2.70;;
28245;SDS011;15510;52.512;13.300;2022-12-29T14:33:38;1.50;;;0.90;;
28245;SDS011;15510;52.512;13.300;2022-12-29T14:36:29;1.10;;;0.87;;
28245;SDS011;15510;52.512;13.300;2022-12-29T14:39:00;3.70;;;2.17;;
28245;SDS011;15510;52.512;13.300;2022-12-29T14:41:33;1.87;;;1.60;;
28245;SDS011;15510;52.512;13.300;2022-12-29T14:46:44;3.87;;;1.20;;
28245;SDS011;15510;52.512;13.300;2022-12-29T14:49:16;3.30;;;1.80;;
28245;SDS011;15510;52.512;13.300;2022-12-29T14:51:45;3.03;;;2.30;;
28245;SDS011;15510;52.512;13.300;2022-12-29T14:57:07;12.50;;;9.10;;
28245;SDS011;15510;52.512;13.300;2022-12-29T14:59:39;6.33;;;4.43;;
28245;SDS011;15510;52.512;13.300;2022-12-29T15:02:12;7.50;;;4.17;;
28245;SDS011;15510;52.512;13.300;2022-12-29T15:04:44;2.43;;;2.03;;
28245;SDS011;15510;52.512;13.300;2022-12-29T15:07:11;11.70;;;6.83;;
28245;SDS011;15510;52.512;13.300;2022-12-29T15:09:43;10.30;;;6.90;;
28245;SDS011;15510;52.512;13.300;2022-12-29T15:14:53;5.20;;;3.40;;
28245;SDS011;15510;52.512;13.300;2022-12-29T15:17:24;7.50;;;4.90;;
28245;SDS011;15510;52.512;13.300;2022-12-29T15:19:53;6.43;;;3.30;;
28245;SDS011;15510;52.512;13.300;2022-12-29T15:22:20;10.10;;;7.27;;
28245;SDS011;15510;52.512;13.300;2022-12-29T15:24:47;5.33;;;3.27;;
28245;SDS011;15510;52.512;13.300;2022-12-29T15:27:19;3.97;;;2.40;;
28245;SDS011;15510;52.512;13.300;2022-12-29T15:29:57;4.23;;;3.10;;
28245;SDS011;15510;52.512;13.300;2022-12-29T15:32:28;3.70;;;2.60;;
28245;SDS011;15510;52.512;13.300;2022-12-29T15:35:13;4.07;;;2.00;;
28245;SDS011;15510;52.512;13.300;2022-12-29T15:38:15;2.40;;;1.20;;
28245;SDS011;15510;52.512;13.300;2022-12-29T15:40:45;2.00;;;0.80;;
28245;SDS011;15510;52.512;13.300;2022-12-29T15:43:23;3.17;;;1.13;;
28245;SDS011;15510;52.512;13.300;2022-12-29T15:46:22;3.13;;;1.27;;
28245;SDS011;15510;52.512;13.300;2022-12-29T15:48:48;2.27;;;1.70;;
28245;SDS011;15510;52.512;13.300;2022-12-29T15:51:16;2.87;;;1.83;;
28245;SDS011;15510;52.512;13.300;2022-12-29T15:53:58;5.63;;;1.23;;
28245;SDS011;15510;52.512;13.300;2022-12-29T15:56:24;1.83;;;1.00;;
28245;SDS011;15510;52.512;13.300;2022-12-29T15:58:53;2.30;;;1.73;;
28245;SDS011;15510;52.512;13.300;2022-12-29T16:01:30;5.67;;;3.90;;
28245;SDS011;15510;52.512;13.300;2022-12-29T16:03:58;2.93;;;1.70;;
28245;SDS011;15510;52.512;13.300;2022-12-29T16:06:29;4.83;;;2.83;;
28245;SDS011;15510;52.512;13.300;2022-12-29T16:08:57;11.33;;;7.90;;
28245;SDS011;15510;52.512;13.300;2022-12-29T16:11:31;5.67;;;4.83;;
28245;SDS011;15510;52.512;13.300;2022-12-29T16:13:58;7.27;;;4.70;;
28245;SDS011;15510;52.512;13.300;2022-12-29T16:16:46;9.37;;;7.03;;
28245;SDS011;15510;52.512;13.300;2022-12-29T16:19:26;3.53;;;3.20;;
28245;SDS011;15510;52.512;13.300;2022-12-29T16:21:54;5.60;;;3.90;;
28245;SDS011;15510;52.512;13.300;2022-12-29T16:24:21;3.30;;;2.77;;
28245;SDS011;15510;52.512;13.300;2022-12-29T16:26:57;4.23;;;3.40;;
28245;SDS011;15510;52.512;13.300;2022-12-29T16:29:30;5.43;;;2.40;;
28245;SDS011;15510;52.512;13.300;2022-12-29T16:31:57;7.47;;;4.20;;
28245;SDS011;15510;52.512;13.300;2022-12-29T16:39:24;6.20;;;2.73;;
28245;SDS011;15510;52.512;13.300;2022-12-29T16:41:55;4.97;;;2.27;;
28245;SDS011;15510;52.512;13.300;2022-12-29T16:44:26;2.93;;;2.00;;
28245;SDS011;15510;52.512;13.300;2022-12-29T16:46:58;9.17;;;6.80;;
28245;SDS011;15510;52.512;13.300;2022-12-29T16:49:25;6.67;;;4.10;;
28245;SDS011;15510;52.512;13.300;2022-12-29T16:51:52;3.10;;;2.13;;
28245;SDS011;15510;52.512;13.300;2022-12-29T16:54:37;6.13;;;2.63;;
28245;SDS011;15510;52.512;13.300;2022-12-29T16:57:04;3.83;;;2.40;;
28245;SDS011;15510;52.512;13.300;2022-12-29T16:59:41;9.17;;;4.50;;
28245;SDS011;15510;52.512;13.300;2022-12-29T17:02:12;6.00;;;4.00;;
28245;SDS011;15510;52.512;13.300;2022-12-29T17:04:40;7.87;;;4.37;;
28245;SDS011;15510;52.512;13.300;2022-12-29T17:07:24;2.13;;;1.50;;
28245;SDS011;15510;52.512;13.300;2022-12-29T17:09:51;2.03;;;1.17;;
28245;SDS011;15510;52.512;13.300;2022-12-29T17:12:25;6.47;;;4.43;;
28245;SDS011;15510;52.512;13.300;2022-12-29T17:17:36;3.73;;;2.33;;
28245;SDS011;15510;52.512;13.300;2022-12-29T17:20:08;4.27;;;1.37;;
28245;SDS011;15510;52.512;13.300;2022-12-29T17:22:40;3.60;;;2.27;;
28245;SDS011;15510;52.512;13.300;2022-12-29T17:25:06;7.70;;;3.37;;
28245;SDS011;15510;52.512;13.300;2022-12-29T17:27:43;8.37;;;4.20;;
28245;SDS011;15510;52.512;13.300;2022-12-29T17:30:19;6.17;;;2.80;;